createdAt,value
2023-05-13T00:02:16.219Z,3.6
2023-05-13T00:07:15.556Z,5.4
2023-05-13T00:12:14.884Z,4.4
2023-05-13T00:17:14.251Z,4.9
2023-05-13T00:22:13.620Z,4.8
2023-05-13T00:27:12.986Z,11
2023-05-13T00:32:12.326Z,4.2
2023-05-13T00:37:11.727Z,4.2
2023-05-13T00:42:11.050Z,6
2023-05-13T00:47:10.383Z,5.4
2023-05-13T00:52:09.779Z,7.2
2023-05-13T00:57:09.191Z,5.7
2023-05-13T01:02:08.533Z,5.8
2023-05-13T01:07:07.905Z,5.2
2023-05-13T01:12:07.288Z,6.3
2023-05-13T01:17:06.851Z,6.4
2023-05-13T01:22:06.054Z,6
2023-05-13T01:27:05.772Z,4.2
2023-05-13T01:32:04.812Z,5.4
2023-05-13T01:37:04.171Z,4.6
2023-05-13T01:42:03.622Z,6.7
2023-05-13T01:47:02.936Z,4.5
2023-05-13T01:52:02.332Z,3.9
2023-05-13T01:57:01.657Z,7.2
2023-05-13T02:02:01.055Z,4.5
2023-05-13T02:07:00.414Z,5.8
2023-05-13T02:11:59.752Z,6.5
2023-05-13T02:16:59.200Z,6.6
2023-05-13T02:21:58.498Z,9.6
2023-05-13T02:26:57.850Z,3.3
2023-05-13T02:31:57.248Z,4.9
2023-05-13T02:36:56.545Z,4.3
2023-05-13T02:41:55.894Z,5.6
2023-05-13T02:46:55.284Z,4.8
2023-05-13T02:51:54.586Z,7.4
2023-05-13T02:56:53.984Z,4.7
2023-05-13T03:01:53.328Z,5.1
2023-05-13T03:06:52.636Z,5.5
2023-05-13T03:11:52.001Z,11
2023-05-13T03:16:51.311Z,7.1
2023-05-13T03:21:50.716Z,8.8
2023-05-13T03:26:50.104Z,4.2
2023-05-13T03:31:49.443Z,6.9
2023-05-13T03:36:48.744Z,3.9
2023-05-13T03:41:48.095Z,4.9
2023-05-13T03:46:47.577Z,4.2
2023-05-13T03:51:46.801Z,4.5
2023-05-13T03:56:46.160Z,4.8
2023-05-13T04:01:45.573Z,5.8
2023-05-13T04:06:44.956Z,4.8
2023-05-13T04:11:44.265Z,4.6
2023-05-13T04:16:43.667Z,7.7
2023-05-13T04:21:42.952Z,6.8
2023-05-13T04:26:42.298Z,6.7
2023-05-13T04:31:41.677Z,4.9
2023-05-13T04:36:41.019Z,6.1
2023-05-13T04:41:40.350Z,6.5
2023-05-13T04:46:39.729Z,7.3
2023-05-13T04:51:39.362Z,5
2023-05-13T04:56:39.433Z,5.7
2023-05-13T05:01:38.383Z,6
2023-05-13T05:06:37.219Z,7.2
2023-05-13T05:11:36.578Z,5.1
2023-05-13T05:16:35.984Z,5.9
2023-05-13T05:21:35.377Z,6.9
2023-05-13T05:26:34.825Z,6.7
2023-05-13T05:31:34.222Z,8.2
2023-05-13T05:36:34.298Z,6.5
2023-05-13T05:41:33.023Z,9.1
2023-05-13T05:46:32.581Z,7.4
2023-05-13T05:51:31.813Z,6.9
2023-05-13T05:56:31.200Z,6.5
2023-05-13T06:01:30.621Z,7.2
2023-05-13T06:06:30.025Z,6.6
2023-05-13T06:11:29.524Z,8.3
2023-05-13T06:16:28.955Z,5.8
2023-05-13T06:21:28.230Z,8.7
2023-05-13T06:26:27.602Z,10.1
2023-05-13T06:31:27.026Z,7.2
2023-05-13T06:36:26.362Z,7.7
2023-05-13T06:41:25.992Z,6.6
2023-05-13T06:46:25.180Z,9.2
2023-05-13T06:56:23.954Z,6.3
2023-05-13T07:01:23.504Z,6.1
2023-05-13T07:06:22.815Z,6.5
2023-05-13T07:11:22.244Z,7.3
2023-05-13T07:16:21.748Z,8
2023-05-13T07:21:21.208Z,10
2023-05-13T07:26:20.681Z,7.4
2023-05-13T07:31:20.323Z,6.9
2023-05-13T07:36:19.627Z,8.3
2023-05-13T07:41:19.076Z,9.8
2023-05-13T07:46:18.571Z,7
2023-05-13T07:51:18.085Z,8.5
2023-05-13T07:56:17.538Z,7.7
2023-05-13T08:01:17.040Z,7.6
2023-05-13T08:06:16.548Z,10.1
2023-05-13T08:11:16.069Z,7.1
2023-05-13T08:16:15.630Z,8.6
2023-05-13T08:21:15.069Z,8.5
2023-05-13T08:26:14.606Z,9
2023-05-13T08:31:14.197Z,9.1
2023-05-13T08:36:13.644Z,9.6
2023-05-13T08:41:13.404Z,8.1
2023-05-13T08:46:12.743Z,10.4
2023-05-13T08:51:12.182Z,8.9
2023-05-13T08:56:11.708Z,9.5
2023-05-13T09:01:11.330Z,9.6
2023-05-13T09:06:10.792Z,9.4
2023-05-13T09:11:10.373Z,11.8
2023-05-13T09:16:09.936Z,10
2023-05-13T09:21:09.421Z,10.1
2023-05-13T09:26:08.957Z,9.6
2023-05-13T09:31:08.587Z,9.2
2023-05-13T09:36:08.095Z,11.8
2023-05-13T09:41:07.609Z,9.5
2023-05-13T09:46:07.217Z,7.6
2023-05-13T09:51:06.787Z,8.1
2023-05-13T09:56:06.392Z,8.4
2023-05-13T10:01:06.089Z,6.6
2023-05-13T10:06:05.616Z,9.5
2023-05-13T10:11:05.227Z,8.5
2023-05-13T10:16:04.919Z,8.3
2023-05-13T10:21:04.444Z,7.7
2023-05-13T10:26:04.104Z,9.4
2023-05-13T10:31:03.744Z,7.5
2023-05-13T10:36:03.297Z,7.7
2023-05-13T10:41:02.895Z,9.6
2023-05-13T10:46:02.530Z,8
2023-05-13T10:51:02.144Z,7.8
2023-05-13T10:56:01.728Z,6.1
2023-05-13T11:01:01.365Z,7.8
2023-05-13T11:06:01.040Z,6.1
2023-05-13T11:11:00.648Z,6
2023-05-13T11:16:00.349Z,7.1
2023-05-13T11:20:59.935Z,5.5
2023-05-13T11:25:59.583Z,7.8
2023-05-13T11:30:59.240Z,6.6
2023-05-13T11:35:58.894Z,5.9
2023-05-13T11:40:58.562Z,5.5
2023-05-13T11:45:58.213Z,6
2023-05-13T11:50:57.896Z,5.3
2023-05-13T11:55:57.560Z,6.3
2023-05-13T12:00:57.266Z,9.6
2023-05-13T12:05:58.344Z,6
2023-05-13T12:10:56.579Z,5.3
2023-05-13T12:15:56.232Z,6.9
2023-05-13T12:20:55.920Z,5.3
2023-05-13T12:25:55.581Z,5.2
2023-05-13T12:30:55.300Z,7
2023-05-13T12:35:54.934Z,6.9
2023-05-13T12:40:54.587Z,6.5
2023-05-13T12:45:54.257Z,5.6
2023-05-13T12:50:53.938Z,5
2023-05-13T12:55:53.601Z,6.9
2023-05-13T13:00:53.273Z,6.3
2023-05-13T13:05:52.902Z,5.5
2023-05-13T13:10:52.526Z,5.2
2023-05-13T13:15:52.179Z,7.3
2023-05-13T13:20:51.788Z,3.9
2023-05-13T13:25:51.450Z,6.3
2023-05-13T13:30:51.122Z,5.9
2023-05-13T13:35:50.749Z,3.7
2023-05-13T13:40:50.391Z,5.9
2023-05-13T13:45:50.093Z,3.9
2023-05-13T13:50:50.719Z,6.1
2023-05-13T13:55:49.318Z,7.9
2023-05-13T14:00:48.982Z,7.5
2023-05-13T14:05:48.595Z,5.9
2023-05-13T14:10:48.216Z,5.4
2023-05-13T14:15:47.910Z,3.3
2023-05-13T14:20:47.518Z,6.1
2023-05-13T14:25:47.095Z,5.8
2023-05-13T14:30:46.724Z,5.6
2023-05-13T14:35:46.361Z,5.9
2023-05-13T14:40:46.028Z,3.6
2023-05-13T14:45:45.621Z,3.3
2023-05-13T14:50:45.384Z,4.2
2023-05-13T14:55:44.876Z,5.6
2023-05-13T15:00:44.632Z,6.1
2023-05-13T15:05:44.375Z,5.3
2023-05-13T15:10:43.744Z,6.3
2023-05-13T15:15:43.394Z,4.9
2023-05-13T15:20:43.027Z,7.9
2023-05-13T15:25:42.664Z,5.2
2023-05-13T15:30:42.335Z,4.4
2023-05-13T15:35:41.948Z,5.7
2023-05-13T15:40:41.566Z,5.4
2023-05-13T15:45:41.173Z,6.1
2023-05-13T15:50:40.908Z,6.1
2023-05-13T15:55:40.420Z,5.5
2023-05-13T16:00:40.026Z,5.9
2023-05-13T16:05:39.656Z,5.5
2023-05-13T16:10:39.293Z,5.1
2023-05-13T16:15:38.904Z,7.2
2023-05-13T16:20:38.544Z,7.2
2023-05-13T16:25:38.140Z,11.5
2023-05-13T16:30:37.817Z,7.6
2023-05-13T16:35:37.400Z,16.9
2023-05-13T16:40:37.011Z,16.6
2023-05-13T16:45:36.626Z,29.8
2023-05-13T16:50:36.239Z,5.3
2023-05-13T16:55:35.836Z,19.1
2023-05-13T17:00:35.363Z,30.2
2023-05-13T17:05:35.031Z,23.7
2023-05-13T17:10:34.586Z,24.7
2023-05-13T17:15:34.073Z,29.3
2023-05-13T17:20:33.660Z,25.6
2023-05-13T17:25:33.237Z,25
2023-05-13T17:30:32.813Z,30.7
2023-05-13T17:35:32.406Z,19.9
2023-05-13T17:40:31.942Z,20.8
2023-05-13T17:45:31.540Z,18.3
2023-05-13T17:50:31.051Z,38
2023-05-13T17:55:30.637Z,28.4
2023-05-13T18:00:30.207Z,12.2
2023-05-13T18:05:29.777Z,16.7
2023-05-13T18:10:29.302Z,26.5
2023-05-13T18:15:28.817Z,25.7
2023-05-13T18:20:28.384Z,20.9
2023-05-13T18:25:27.938Z,17.2
2023-05-13T18:30:28.249Z,19.3
2023-05-13T18:35:27.008Z,14.8
2023-05-13T18:40:26.530Z,12.3
2023-05-13T18:45:26.042Z,6.6
2023-05-13T18:50:25.572Z,6.3
2023-05-13T18:55:25.120Z,4.5
2023-05-13T19:00:24.804Z,4.4
2023-05-13T19:05:24.108Z,8.9
2023-05-13T19:10:23.965Z,7.6
2023-05-13T19:15:23.152Z,16.8
2023-05-13T19:20:23.081Z,9.9
2023-05-13T19:25:22.277Z,9
2023-05-13T19:30:21.935Z,6.9
2023-05-13T19:35:21.253Z,8
2023-05-13T19:40:20.897Z,6.3
2023-05-13T19:45:20.319Z,7.2
2023-05-13T19:50:19.873Z,10.8
2023-05-13T19:55:19.404Z,5.4
2023-05-13T20:00:18.900Z,7
2023-05-13T20:05:18.469Z,5.6
2023-05-13T20:10:17.997Z,5.8
2023-05-13T20:15:18.706Z,3.3
2023-05-13T20:20:17.008Z,8
2023-05-13T20:25:16.560Z,6.5
2023-05-13T20:30:16.048Z,5.1
2023-05-13T20:35:15.554Z,5.5
2023-05-13T20:40:15.081Z,6.9
2023-05-13T20:45:14.569Z,4.6
2023-05-13T20:50:14.161Z,3
2023-05-13T20:55:13.618Z,4.1
2023-05-13T21:00:13.164Z,4.1
2023-05-13T21:05:12.654Z,4.7
2023-05-13T21:10:12.195Z,3.7
2023-05-13T21:15:14.263Z,3.8
2023-05-13T21:20:11.243Z,5.8
2023-05-13T21:25:10.663Z,4.5
2023-05-13T21:30:10.154Z,3.2
2023-05-13T21:35:09.657Z,4.8
2023-05-13T21:40:09.339Z,5.8
2023-05-13T21:45:08.646Z,3.3
2023-05-13T21:50:08.176Z,4.5
2023-05-13T21:55:07.627Z,6.9
2023-05-13T22:00:07.094Z,3.4
2023-05-13T22:05:06.586Z,4.1
2023-05-13T22:10:06.096Z,3.4
2023-05-13T22:15:05.589Z,3.3
2023-05-13T22:20:05.081Z,4.4
2023-05-13T22:25:04.572Z,2.4
2023-05-13T22:30:04.073Z,2.7
2023-05-13T22:35:03.565Z,2.4
2023-05-13T22:40:03.021Z,4
2023-05-13T22:45:02.587Z,5.5
2023-05-13T22:50:01.987Z,4.5
2023-05-13T22:55:01.430Z,3.1
2023-05-13T23:00:00.916Z,2.8
2023-05-13T23:05:00.388Z,3.9
2023-05-13T23:09:59.874Z,4.7
2023-05-13T23:14:59.293Z,4.3
2023-05-13T23:19:58.705Z,4.6
2023-05-13T23:24:58.135Z,3.3
2023-05-13T23:29:57.566Z,4.6
2023-05-13T23:34:57.007Z,4.5
2023-05-13T23:39:56.440Z,5.2
2023-05-13T23:44:55.925Z,4.2
2023-05-13T23:49:55.391Z,3.8
2023-05-13T23:54:54.836Z,5.2
2023-05-13T23:59:54.278Z,5
